Airfield :
LOGIN :

Register | Disclaimer

   EN    FR    IT 

 










Legend :    VFR   Marginal VFR   IFR   Intensive IFR   Very Intensive IFR
Visi :
Ceiling :
>= 8 km
>= 3000ft
5 to 8 km
1000 to 3000 ft
1500m to 5 km
500 to 1000 ft
800 to 1500m
200 to 500 ft
< 800m
< 200 ft
Symbols :   Thunderstorms  Fog  Heavy snow  Heavy precipitations  Wind > 20 kt
SIGMETs :     Misc.  Thunderstorms  Icing  Turbulence  Mountain Waves  Volcanic Ashes







- Airport Elevation : 146 ft
- IATA code : RKE


EKRK - Roskilde Tune

CURRENT METAR :
  • 210120Z AUTO 10017KT 9999NDV FEW023/// BKN030/// 05/01 Q1024

EXPIRED METARs :
  • 210050Z AUTO 10017KT 9999NDV FEW023/// BKN032/// 06/01 Q1024
  • 210020Z AUTO 10016G26KT 9999NDV SCT028/// BKN035/// 06/01 Q1024
  • 202350Z AUTO 09015KT 9999NDV FEW024/// BKN031/// 06/01 Q1024
  • 202320Z AUTO 10016KT 9999NDV SCT024/// OVC031/// 06/01 Q1024
  • 202250Z AUTO 10017KT 9999NDV BKN024/// BKN030/// 06/01 Q1024

TAF TAF EKRK
Valid from the 21 at 00:00 until the 21 at 09:00 UTC


202304Z 2100/2109 09015KT 9999 BKN025
No reported NOTAMs for that airfield.



MET'MAP, your aeronautical weather chart ! - Copyright ORBIFLY December 2007 - Disclaimer

ORBIFLY MET'MAP TEAM :

Programming & Development : Alexandra Zaïnal
Concept & Development : Baudouin d'Aumeries
Co-Development & Prog : Marc-Olivier Méhu
Technical & hardware support : Manuel Goepfert

Contact : metmap@orbifly.com




SOURCES & CREDITS :

   NOAA